sensor_id;sensor_type;location;lat;lon;timestamp;temperature;humidity
33955;DHT22;20233;50.804;7.126;2024-03-25T00:01:32;7.00;99.90
33955;DHT22;20233;50.804;7.126;2024-03-25T00:03:58;7.10;99.90
33955;DHT22;20233;50.804;7.126;2024-03-25T00:06:23;7.00;99.90
33955;DHT22;20233;50.804;7.126;2024-03-25T00:08:49;6.90;99.90
33955;DHT22;20233;50.804;7.126;2024-03-25T00:11:14;6.90;99.90
33955;DHT22;20233;50.804;7.126;2024-03-25T00:13:40;7.00;99.90
33955;DHT22;20233;50.804;7.126;2024-03-25T00:16:06;7.00;99.90
33955;DHT22;20233;50.804;7.126;2024-03-25T00:18:32;7.10;99.90
33955;DHT22;20233;50.804;7.126;2024-03-25T00:20:57;7.10;99.90
33955;DHT22;20233;50.804;7.126;2024-03-25T00:23:23;7.00;99.90
33955;DHT22;20233;50.804;7.126;2024-03-25T00:25:48;7.10;99.90
33955;DHT22;20233;50.804;7.126;2024-03-25T00:28:14;7.10;99.90
33955;DHT22;20233;50.804;7.126;2024-03-25T00:30:40;7.10;99.90
33955;DHT22;20233;50.804;7.126;2024-03-25T00:33:05;7.10;99.90
33955;DHT22;20233;50.804;7.126;2024-03-25T00:35:35;7.00;99.90
33955;DHT22;20233;50.804;7.126;2024-03-25T00:38:00;7.10;99.90
33955;DHT22;20233;50.804;7.126;2024-03-25T00:40:26;7.10;99.90
33955;DHT22;20233;50.804;7.126;2024-03-25T00:42:51;7.10;99.90
33955;DHT22;20233;50.804;7.126;2024-03-25T00:45:17;7.10;99.90
33955;DHT22;20233;50.804;7.126;2024-03-25T00:47:43;7.10;99.90
33955;DHT22;20233;50.804;7.126;2024-03-25T00:50:08;7.10;99.90
33955;DHT22;20233;50.804;7.126;2024-03-25T00:52:35;7.10;99.90
33955;DHT22;20233;50.804;7.126;2024-03-25T00:55:00;7.20;99.90
33955;DHT22;20233;50.804;7.126;2024-03-25T00:57:26;7.00;99.90
33955;DHT22;20233;50.804;7.126;2024-03-25T00:59:52;6.90;99.90
33955;DHT22;20233;50.804;7.126;2024-03-25T01:02:17;7.00;99.90
33955;DHT22;20233;50.804;7.126;2024-03-25T01:04:43;7.00;99.90
33955;DHT22;20233;50.804;7.126;2024-03-25T01:07:09;6.90;99.90
33955;DHT22;20233;50.804;7.126;2024-03-25T01:09:34;7.00;99.90
33955;DHT22;20233;50.804;7.126;2024-03-25T01:12:00;7.00;99.90
33955;DHT22;20233;50.804;7.126;2024-03-25T01:14:26;7.00;99.90
33955;DHT22;20233;50.804;7.126;2024-03-25T01:16:52;7.00;99.90
33955;DHT22;20233;50.804;7.126;2024-03-25T01:19:18;7.00;99.90
33955;DHT22;20233;50.804;7.126;2024-03-25T01:21:43;7.00;99.90
33955;DHT22;20233;50.804;7.126;2024-03-25T01:24:09;7.00;99.90
33955;DHT22;20233;50.804;7.126;2024-03-25T01:26:35;6.90;99.90
33955;DHT22;20233;50.804;7.126;2024-03-25T01:29:01;6.90;99.90
33955;DHT22;20233;50.804;7.126;2024-03-25T01:31:27;6.80;99.90
33955;DHT22;20233;50.804;7.126;2024-03-25T01:36:18;6.90;99.90
33955;DHT22;20233;50.804;7.126;2024-03-25T01:38:44;6.90;99.90
33955;DHT22;20233;50.804;7.126;2024-03-25T01:41:11;6.80;99.90
33955;DHT22;20233;50.804;7.126;2024-03-25T01:43:37;6.90;99.90
33955;DHT22;20233;50.804;7.126;2024-03-25T01:46:02;6.90;99.90
33955;DHT22;20233;50.804;7.126;2024-03-25T01:48:28;6.90;99.90
33955;DHT22;20233;50.804;7.126;2024-03-25T01:50:54;6.90;99.90
33955;DHT22;20233;50.804;7.126;2024-03-25T01:53:20;6.80;99.90
33955;DHT22;20233;50.804;7.126;2024-03-25T01:55:46;6.80;99.90
33955;DHT22;20233;50.804;7.126;2024-03-25T01:58:13;6.80;99.90
33955;DHT22;20233;50.804;7.126;2024-03-25T02:00:39;6.80;99.90
33955;DHT22;20233;50.804;7.126;2024-03-25T02:03:05;6.80;99.90
33955;DHT22;20233;50.804;7.126;2024-03-25T02:05:31;6.80;99.90
33955;DHT22;20233;50.804;7.126;2024-03-25T02:07:57;6.80;99.90
33955;DHT22;20233;50.804;7.126;2024-03-25T02:10:23;6.80;99.90
33955;DHT22;20233;50.804;7.126;2024-03-25T02:12:49;6.80;99.90
33955;DHT22;20233;50.804;7.126;2024-03-25T02:15:15;6.80;99.90
33955;DHT22;20233;50.804;7.126;2024-03-25T02:17:41;6.80;99.90
33955;DHT22;20233;50.804;7.126;2024-03-25T02:20:07;6.80;99.90
33955;DHT22;20233;50.804;7.126;2024-03-25T02:22:37;6.80;99.90
33955;DHT22;20233;50.804;7.126;2024-03-25T02:25:07;6.70;99.90
33955;DHT22;20233;50.804;7.126;2024-03-25T02:27:37;6.70;99.90
33955;DHT22;20233;50.804;7.126;2024-03-25T02:30:10;6.70;99.90
33955;DHT22;20233;50.804;7.126;2024-03-25T02:32:39;6.70;99.90
33955;DHT22;20233;50.804;7.126;2024-03-25T02:35:12;6.60;99.90
33955;DHT22;20233;50.804;7.126;2024-03-25T02:37:39;6.60;99.90
33955;DHT22;20233;50.804;7.126;2024-03-25T02:40:05;6.50;99.90
33955;DHT22;20233;50.804;7.126;2024-03-25T02:42:32;6.60;99.90
33955;DHT22;20233;50.804;7.126;2024-03-25T02:44:58;6.40;99.90
33955;DHT22;20233;50.804;7.126;2024-03-25T02:47:24;6.40;99.90
33955;DHT22;20233;50.804;7.126;2024-03-25T02:49:50;6.40;99.90
33955;DHT22;20233;50.804;7.126;2024-03-25T02:52:17;6.40;99.90
33955;DHT22;20233;50.804;7.126;2024-03-25T02:54:42;6.30;99.90
33955;DHT22;20233;50.804;7.126;2024-03-25T02:57:08;6.30;99.90
33955;DHT22;20233;50.804;7.126;2024-03-25T02:59:33;6.30;99.90
33955;DHT22;20233;50.804;7.126;2024-03-25T03:01:59;6.20;99.90
33955;DHT22;20233;50.804;7.126;2024-03-25T03:04:24;6.20;99.90
33955;DHT22;20233;50.804;7.126;2024-03-25T03:06:50;6.00;99.90
33955;DHT22;20233;50.804;7.126;2024-03-25T03:09:15;6.00;99.90
33955;DHT22;20233;50.804;7.126;2024-03-25T03:11:41;6.00;99.90
33955;DHT22;20233;50.804;7.126;2024-03-25T03:14:07;5.90;99.90
33955;DHT22;20233;50.804;7.126;2024-03-25T03:16:32;5.90;99.90
33955;DHT22;20233;50.804;7.126;2024-03-25T03:18:58;6.00;99.90
33955;DHT22;20233;50.804;7.126;2024-03-25T03:21:23;6.00;99.90
33955;DHT22;20233;50.804;7.126;2024-03-25T03:23:49;6.00;99.90
33955;DHT22;20233;50.804;7.126;2024-03-25T03:26:14;5.90;99.90
33955;DHT22;20233;50.804;7.126;2024-03-25T03:28:40;5.90;99.90
33955;DHT22;20233;50.804;7.126;2024-03-25T03:31:06;6.00;99.90
33955;DHT22;20233;50.804;7.126;2024-03-25T03:33:32;6.00;99.90
33955;DHT22;20233;50.804;7.126;2024-03-25T03:35:57;5.90;99.90
33955;DHT22;20233;50.804;7.126;2024-03-25T03:38:23;5.90;99.90
33955;DHT22;20233;50.804;7.126;2024-03-25T03:40:59;5.90;99.90
33955;DHT22;20233;50.804;7.126;2024-03-25T03:43:24;6.00;99.90
33955;DHT22;20233;50.804;7.126;2024-03-25T03:45:50;6.00;99.90
33955;DHT22;20233;50.804;7.126;2024-03-25T03:48:16;6.00;99.90
33955;DHT22;20233;50.804;7.126;2024-03-25T03:50:42;5.90;99.90
33955;DHT22;20233;50.804;7.126;2024-03-25T03:53:07;5.90;99.90
33955;DHT22;20233;50.804;7.126;2024-03-25T03:55:33;5.90;99.90
33955;DHT22;20233;50.804;7.126;2024-03-25T03:57:59;5.90;99.90
33955;DHT22;20233;50.804;7.126;2024-03-25T04:00:24;6.00;99.90
33955;DHT22;20233;50.804;7.126;2024-03-25T04:02:50;5.90;99.90
33955;DHT22;20233;50.804;7.126;2024-03-25T04:05:15;6.00;99.90
33955;DHT22;20233;50.804;7.126;2024-03-25T04:07:41;5.90;99.90
33955;DHT22;20233;50.804;7.126;2024-03-25T04:10:07;6.00;99.90
33955;DHT22;20233;50.804;7.126;2024-03-25T04:12:32;6.00;99.90
33955;DHT22;20233;50.804;7.126;2024-03-25T04:14:58;6.00;99.90
33955;DHT22;20233;50.804;7.126;2024-03-25T04:17:23;6.00;99.90
33955;DHT22;20233;50.804;7.126;2024-03-25T04:19:50;6.10;99.90
33955;DHT22;20233;50.804;7.126;2024-03-25T04:22:15;6.00;99.90
33955;DHT22;20233;50.804;7.126;2024-03-25T04:24:42;6.00;99.90
33955;DHT22;20233;50.804;7.126;2024-03-25T04:27:07;5.90;99.90
33955;DHT22;20233;50.804;7.126;2024-03-25T04:29:33;5.80;99.90
33955;DHT22;20233;50.804;7.126;2024-03-25T04:31:58;5.80;99.90
33955;DHT22;20233;50.804;7.126;2024-03-25T04:34:24;5.80;99.90
33955;DHT22;20233;50.804;7.126;2024-03-25T04:36:49;5.80;99.90
33955;DHT22;20233;50.804;7.126;2024-03-25T04:39:15;5.70;99.90
33955;DHT22;20233;50.804;7.126;2024-03-25T04:41:40;5.70;99.90
33955;DHT22;20233;50.804;7.126;2024-03-25T04:44:06;5.70;99.90
33955;DHT22;20233;50.804;7.126;2024-03-25T04:46:31;5.70;99.90
33955;DHT22;20233;50.804;7.126;2024-03-25T04:48:57;5.50;99.90
33955;DHT22;20233;50.804;7.126;2024-03-25T04:51:23;5.40;99.90
33955;DHT22;20233;50.804;7.126;2024-03-25T04:53:49;5.40;99.90
33955;DHT22;20233;50.804;7.126;2024-03-25T04:56:14;5.30;99.90
33955;DHT22;20233;50.804;7.126;2024-03-25T04:58:40;5.30;99.90
33955;DHT22;20233;50.804;7.126;2024-03-25T05:01:05;5.30;99.90
33955;DHT22;20233;50.804;7.126;2024-03-25T05:03:31;5.20;99.90
33955;DHT22;20233;50.804;7.126;2024-03-25T05:05:56;5.10;99.90
33955;DHT22;20233;50.804;7.126;2024-03-25T05:08:22;5.10;99.90
33955;DHT22;20233;50.804;7.126;2024-03-25T05:10:47;5.10;99.90
33955;DHT22;20233;50.804;7.126;2024-03-25T05:13:13;5.10;99.90
33955;DHT22;20233;50.804;7.126;2024-03-25T05:15:38;5.00;99.90
33955;DHT22;20233;50.804;7.126;2024-03-25T05:18:04;5.00;99.90
33955;DHT22;20233;50.804;7.126;2024-03-25T05:20:30;4.90;99.90
33955;DHT22;20233;50.804;7.126;2024-03-25T05:22:56;4.90;99.90
33955;DHT22;20233;50.804;7.126;2024-03-25T05:25:21;4.80;99.90
33955;DHT22;20233;50.804;7.126;2024-03-25T05:27:54;4.70;99.90
33955;DHT22;20233;50.804;7.126;2024-03-25T05:30:19;4.70;99.90
33955;DHT22;20233;50.804;7.126;2024-03-25T05:32:45;4.70;99.90
33955;DHT22;20233;50.804;7.126;2024-03-25T05:35:10;4.70;99.90
33955;DHT22;20233;50.804;7.126;2024-03-25T05:37:36;4.70;99.90
33955;DHT22;20233;50.804;7.126;2024-03-25T05:40:02;4.70;99.90
33955;DHT22;20233;50.804;7.126;2024-03-25T05:42:28;4.60;99.90
33955;DHT22;20233;50.804;7.126;2024-03-25T05:44:54;4.60;99.90
33955;DHT22;20233;50.804;7.126;2024-03-25T05:47:19;4.60;99.90
33955;DHT22;20233;50.804;7.126;2024-03-25T05:49:46;4.60;99.90
33955;DHT22;20233;50.804;7.126;2024-03-25T05:52:12;4.60;99.90
33955;DHT22;20233;50.804;7.126;2024-03-25T05:54:38;4.50;99.90
33955;DHT22;20233;50.804;7.126;2024-03-25T05:57:03;4.40;99.90
33955;DHT22;20233;50.804;7.126;2024-03-25T05:59:29;4.40;99.90
33955;DHT22;20233;50.804;7.126;2024-03-25T06:01:55;4.40;99.90
33955;DHT22;20233;50.804;7.126;2024-03-25T06:04:20;4.40;99.90
33955;DHT22;20233;50.804;7.126;2024-03-25T06:06:46;4.50;99.90
33955;DHT22;20233;50.804;7.126;2024-03-25T06:09:11;4.50;99.90
33955;DHT22;20233;50.804;7.126;2024-03-25T06:11:37;4.40;99.90
33955;DHT22;20233;50.804;7.126;2024-03-25T06:14:02;4.50;99.90
33955;DHT22;20233;50.804;7.126;2024-03-25T06:16:28;4.50;99.90
33955;DHT22;20233;50.804;7.126;2024-03-25T06:18:53;4.50;99.90
33955;DHT22;20233;50.804;7.126;2024-03-25T06:21:19;4.50;99.90
33955;DHT22;20233;50.804;7.126;2024-03-25T06:23:44;4.60;99.90
33955;DHT22;20233;50.804;7.126;2024-03-25T06:26:10;4.70;99.90
33955;DHT22;20233;50.804;7.126;2024-03-25T06:28:36;4.70;99.90
33955;DHT22;20233;50.804;7.126;2024-03-25T06:31:01;4.70;99.90
33955;DHT22;20233;50.804;7.126;2024-03-25T06:33:45;4.80;99.90
33955;DHT22;20233;50.804;7.126;2024-03-25T06:36:29;4.80;99.90
33955;DHT22;20233;50.804;7.126;2024-03-25T06:38:55;4.80;99.90
33955;DHT22;20233;50.804;7.126;2024-03-25T06:41:20;4.80;99.90
33955;DHT22;20233;50.804;7.126;2024-03-25T06:43:46;4.80;99.90
33955;DHT22;20233;50.804;7.126;2024-03-25T06:46:11;5.00;99.90
33955;DHT22;20233;50.804;7.126;2024-03-25T06:48:37;5.00;99.90
33955;DHT22;20233;50.804;7.126;2024-03-25T06:51:03;5.00;99.90
33955;DHT22;20233;50.804;7.126;2024-03-25T06:53:29;4.90;99.90
33955;DHT22;20233;50.804;7.126;2024-03-25T06:55:59;4.90;99.90
33955;DHT22;20233;50.804;7.126;2024-03-25T06:58:28;5.00;99.90
33955;DHT22;20233;50.804;7.126;2024-03-25T07:00:55;5.00;99.90
33955;DHT22;20233;50.804;7.126;2024-03-25T07:03:22;5.10;99.90
33955;DHT22;20233;50.804;7.126;2024-03-25T07:05:50;5.20;99.90
33955;DHT22;20233;50.804;7.126;2024-03-25T07:08:17;5.30;99.90
33955;DHT22;20233;50.804;7.126;2024-03-25T07:10:45;5.50;99.90
33955;DHT22;20233;50.804;7.126;2024-03-25T07:13:11;5.50;99.90
33955;DHT22;20233;50.804;7.126;2024-03-25T07:15:38;5.50;99.90
33955;DHT22;20233;50.804;7.126;2024-03-25T07:18:04;5.60;99.90
33955;DHT22;20233;50.804;7.126;2024-03-25T07:20:30;5.70;99.90
33955;DHT22;20233;50.804;7.126;2024-03-25T07:22:56;5.80;99.90
33955;DHT22;20233;50.804;7.126;2024-03-25T07:25:22;5.90;99.90
33955;DHT22;20233;50.804;7.126;2024-03-25T07:27:48;5.90;99.90
33955;DHT22;20233;50.804;7.126;2024-03-25T07:30:16;5.80;99.90
33955;DHT22;20233;50.804;7.126;2024-03-25T07:32:42;5.90;99.90
33955;DHT22;20233;50.804;7.126;2024-03-25T07:35:10;6.00;99.90
33955;DHT22;20233;50.804;7.126;2024-03-25T07:37:36;6.20;99.90
33955;DHT22;20233;50.804;7.126;2024-03-25T07:40:02;6.20;99.90
33955;DHT22;20233;50.804;7.126;2024-03-25T07:42:29;6.20;99.90
33955;DHT22;20233;50.804;7.126;2024-03-25T07:44:56;6.30;99.90
33955;DHT22;20233;50.804;7.126;2024-03-25T07:47:21;6.40;99.90
33955;DHT22;20233;50.804;7.126;2024-03-25T07:49:47;6.40;99.90
33955;DHT22;20233;50.804;7.126;2024-03-25T07:52:12;6.50;99.90
33955;DHT22;20233;50.804;7.126;2024-03-25T07:54:39;6.40;99.90
33955;DHT22;20233;50.804;7.126;2024-03-25T07:57:04;6.40;99.90
33955;DHT22;20233;50.804;7.126;2024-03-25T07:59:30;6.40;99.90
33955;DHT22;20233;50.804;7.126;2024-03-25T08:01:56;6.40;99.90
33955;DHT22;20233;50.804;7.126;2024-03-25T08:04:21;6.50;99.90
33955;DHT22;20233;50.804;7.126;2024-03-25T08:06:47;6.50;99.90
33955;DHT22;20233;50.804;7.126;2024-03-25T08:09:12;6.70;99.90
33955;DHT22;20233;50.804;7.126;2024-03-25T08:11:41;6.80;99.90
33955;DHT22;20233;50.804;7.126;2024-03-25T08:14:06;6.70;99.90
33955;DHT22;20233;50.804;7.126;2024-03-25T08:16:32;6.70;99.90
33955;DHT22;20233;50.804;7.126;2024-03-25T08:18:57;6.80;99.90
33955;DHT22;20233;50.804;7.126;2024-03-25T08:21:23;6.90;99.90
33955;DHT22;20233;50.804;7.126;2024-03-25T08:23:48;7.00;99.90
33955;DHT22;20233;50.804;7.126;2024-03-25T08:26:14;7.00;99.90
33955;DHT22;20233;50.804;7.126;2024-03-25T08:28:40;7.20;99.90
33955;DHT22;20233;50.804;7.126;2024-03-25T08:31:05;7.20;99.90
33955;DHT22;20233;50.804;7.126;2024-03-25T08:33:31;7.30;99.90
33955;DHT22;20233;50.804;7.126;2024-03-25T08:35:56;7.50;99.90
33955;DHT22;20233;50.804;7.126;2024-03-25T08:38:22;7.50;99.90
33955;DHT22;20233;50.804;7.126;2024-03-25T08:40:48;7.60;99.90
33955;DHT22;20233;50.804;7.126;2024-03-25T08:43:14;7.60;99.90
33955;DHT22;20233;50.804;7.126;2024-03-25T08:45:39;7.80;99.90
33955;DHT22;20233;50.804;7.126;2024-03-25T08:48:06;7.80;99.90
33955;DHT22;20233;50.804;7.126;2024-03-25T08:50:32;7.80;99.90
33955;DHT22;20233;50.804;7.126;2024-03-25T08:52:57;7.80;99.90
33955;DHT22;20233;50.804;7.126;2024-03-25T08:55:23;7.80;99.90
33955;DHT22;20233;50.804;7.126;2024-03-25T08:57:49;7.90;99.90
33955;DHT22;20233;50.804;7.126;2024-03-25T09:00:15;8.10;99.90
33955;DHT22;20233;50.804;7.126;2024-03-25T09:02:41;8.30;99.90
33955;DHT22;20233;50.804;7.126;2024-03-25T09:05:06;8.30;99.90
33955;DHT22;20233;50.804;7.126;2024-03-25T09:07:35;8.40;99.90
33955;DHT22;20233;50.804;7.126;2024-03-25T09:10:01;8.50;99.90
33955;DHT22;20233;50.804;7.126;2024-03-25T09:12:45;8.40;99.90
33955;DHT22;20233;50.804;7.126;2024-03-25T09:15:11;8.50;99.90
33955;DHT22;20233;50.804;7.126;2024-03-25T09:17:36;8.50;99.90
33955;DHT22;20233;50.804;7.126;2024-03-25T09:20:02;8.50;99.90
33955;DHT22;20233;50.804;7.126;2024-03-25T09:22:30;8.60;99.90
33955;DHT22;20233;50.804;7.126;2024-03-25T09:24:56;8.60;99.90
33955;DHT22;20233;50.804;7.126;2024-03-25T09:27:21;8.80;99.90
33955;DHT22;20233;50.804;7.126;2024-03-25T09:29:47;8.90;99.90
33955;DHT22;20233;50.804;7.126;2024-03-25T09:32:12;9.00;99.90
33955;DHT22;20233;50.804;7.126;2024-03-25T09:34:38;8.90;99.90
33955;DHT22;20233;50.804;7.126;2024-03-25T09:37:04;9.00;99.90
33955;DHT22;20233;50.804;7.126;2024-03-25T09:39:29;9.00;99.90
33955;DHT22;20233;50.804;7.126;2024-03-25T09:41:56;8.90;99.90
33955;DHT22;20233;50.804;7.126;2024-03-25T09:44:24;9.00;99.90
33955;DHT22;20233;50.804;7.126;2024-03-25T09:46:51;9.10;99.90
33955;DHT22;20233;50.804;7.126;2024-03-25T09:49:17;9.10;99.90
33955;DHT22;20233;50.804;7.126;2024-03-25T09:51:43;9.10;99.90
33955;DHT22;20233;50.804;7.126;2024-03-25T09:54:08;9.10;99.90
33955;DHT22;20233;50.804;7.126;2024-03-25T09:56:35;9.20;99.90
33955;DHT22;20233;50.804;7.126;2024-03-25T09:59:02;9.30;99.90
33955;DHT22;20233;50.804;7.126;2024-03-25T10:01:29;9.30;99.90
33955;DHT22;20233;50.804;7.126;2024-03-25T10:03:54;9.40;99.90
33955;DHT22;20233;50.804;7.126;2024-03-25T10:06:20;9.30;99.90
33955;DHT22;20233;50.804;7.126;2024-03-25T10:08:46;9.40;99.90
33955;DHT22;20233;50.804;7.126;2024-03-25T10:11:11;9.70;99.90
33955;DHT22;20233;50.804;7.126;2024-03-25T10:13:40;9.80;99.90
33955;DHT22;20233;50.804;7.126;2024-03-25T10:16:07;9.80;99.90
33955;DHT22;20233;50.804;7.126;2024-03-25T10:18:32;9.90;99.90
33955;DHT22;20233;50.804;7.126;2024-03-25T10:20:59;10.10;99.90
33955;DHT22;20233;50.804;7.126;2024-03-25T10:23:24;10.10;99.90
33955;DHT22;20233;50.804;7.126;2024-03-25T10:25:52;10.20;99.90
33955;DHT22;20233;50.804;7.126;2024-03-25T10:28:18;10.30;99.90
33955;DHT22;20233;50.804;7.126;2024-03-25T10:30:44;10.30;99.90
33955;DHT22;20233;50.804;7.126;2024-03-25T10:33:09;10.30;99.90
33955;DHT22;20233;50.804;7.126;2024-03-25T10:35:36;10.30;99.70
33955;DHT22;20233;50.804;7.126;2024-03-25T10:38:04;10.40;99.90
33955;DHT22;20233;50.804;7.126;2024-03-25T10:40:40;10.60;99.90
33955;DHT22;20233;50.804;7.126;2024-03-25T10:43:07;10.70;99.90
33955;DHT22;20233;50.804;7.126;2024-03-25T10:45:49;10.80;99.90
33955;DHT22;20233;50.804;7.126;2024-03-25T10:48:21;11.00;97.40
33955;DHT22;20233;50.804;7.126;2024-03-25T10:50:49;10.90;91.00
33955;DHT22;20233;50.804;7.126;2024-03-25T10:53:18;10.80;91.70
33955;DHT22;20233;50.804;7.126;2024-03-25T10:55:55;10.90;90.60
33955;DHT22;20233;50.804;7.126;2024-03-25T10:58:23;11.10;94.30
33955;DHT22;20233;50.804;7.126;2024-03-25T11:00:52;11.00;77.50
33955;DHT22;20233;50.804;7.126;2024-03-25T11:03:17;10.80;73.00
33955;DHT22;20233;50.804;7.126;2024-03-25T11:05:43;10.80;64.00
33955;DHT22;20233;50.804;7.126;2024-03-25T11:08:14;10.80;63.20
33955;DHT22;20233;50.804;7.126;2024-03-25T11:10:41;10.90;84.80
33955;DHT22;20233;50.804;7.126;2024-03-25T11:13:27;11.10;83.30
33955;DHT22;20233;50.804;7.126;2024-03-25T11:15:53;11.00;60.50
33955;DHT22;20233;50.804;7.126;2024-03-25T11:18:23;11.10;68.00
33955;DHT22;20233;50.804;7.126;2024-03-25T11:21:00;11.20;67.20
33955;DHT22;20233;50.804;7.126;2024-03-25T11:23:26;11.40;76.30
33955;DHT22;20233;50.804;7.126;2024-03-25T11:25:55;11.50;56.00
33955;DHT22;20233;50.804;7.126;2024-03-25T11:28:27;11.60;86.30
33955;DHT22;20233;50.804;7.126;2024-03-25T11:30:53;11.70;70.90
33955;DHT22;20233;50.804;7.126;2024-03-25T11:33:19;11.90;57.10
33955;DHT22;20233;50.804;7.126;2024-03-25T11:35:48;12.00;51.80
33955;DHT22;20233;50.804;7.126;2024-03-25T11:38:14;12.20;50.00
33955;DHT22;20233;50.804;7.126;2024-03-25T11:40:42;12.00;26.60
33955;DHT22;20233;50.804;7.126;2024-03-25T11:43:08;12.00;28.20
33955;DHT22;20233;50.804;7.126;2024-03-25T11:45:36;12.10;27.30
33955;DHT22;20233;50.804;7.126;2024-03-25T11:48:02;11.90;17.30
33955;DHT22;20233;50.804;7.126;2024-03-25T11:50:27;11.90;10.60
33955;DHT22;20233;50.804;7.126;2024-03-25T11:52:53;12.10;20.40
33955;DHT22;20233;50.804;7.126;2024-03-25T11:55:19;12.10;12.40
33955;DHT22;20233;50.804;7.126;2024-03-25T11:57:44;12.30;11.70
33955;DHT22;20233;50.804;7.126;2024-03-25T12:00:10;12.30;4.10
33955;DHT22;20233;50.804;7.126;2024-03-25T12:02:43;12.40;1.00
33955;DHT22;20233;50.804;7.126;2024-03-25T12:05:08;12.40;1.00
33955;DHT22;20233;50.804;7.126;2024-03-25T12:07:34;12.50;1.00
33955;DHT22;20233;50.804;7.126;2024-03-25T12:10:01;12.50;1.00
33955;DHT22;20233;50.804;7.126;2024-03-25T12:12:45;12.80;1.00
33955;DHT22;20233;50.804;7.126;2024-03-25T12:15:11;13.00;1.00
33955;DHT22;20233;50.804;7.126;2024-03-25T12:17:37;12.90;1.00
33955;DHT22;20233;50.804;7.126;2024-03-25T12:22:31;12.60;1.00
33955;DHT22;20233;50.804;7.126;2024-03-25T12:24:58;12.70;1.00
33955;DHT22;20233;50.804;7.126;2024-03-25T12:27:24;12.80;1.00
33955;DHT22;20233;50.804;7.126;2024-03-25T12:29:59;12.80;1.00
33955;DHT22;20233;50.804;7.126;2024-03-25T12:32:35;13.00;1.00
33955;DHT22;20233;50.804;7.126;2024-03-25T12:35:01;13.10;1.00
33955;DHT22;20233;50.804;7.126;2024-03-25T12:37:26;13.10;1.00
33955;DHT22;20233;50.804;7.126;2024-03-25T12:39:52;13.20;1.00
33955;DHT22;20233;50.804;7.126;2024-03-25T12:42:18;13.30;1.00
33955;DHT22;20233;50.804;7.126;2024-03-25T12:44:45;13.10;1.00
33955;DHT22;20233;50.804;7.126;2024-03-25T12:47:10;13.10;1.00
33955;DHT22;20233;50.804;7.126;2024-03-25T12:49:36;13.20;1.00
33955;DHT22;20233;50.804;7.126;2024-03-25T12:52:05;13.30;1.00
33955;DHT22;20233;50.804;7.126;2024-03-25T12:54:31;13.20;1.00
33955;DHT22;20233;50.804;7.126;2024-03-25T12:56:56;13.10;1.00
33955;DHT22;20233;50.804;7.126;2024-03-25T12:59:22;13.20;1.00
33955;DHT22;20233;50.804;7.126;2024-03-25T13:01:47;13.00;1.00
33955;DHT22;20233;50.804;7.126;2024-03-25T13:04:13;13.00;1.00
33955;DHT22;20233;50.804;7.126;2024-03-25T13:06:39;13.10;1.00
33955;DHT22;20233;50.804;7.126;2024-03-25T13:09:04;13.30;1.00
33955;DHT22;20233;50.804;7.126;2024-03-25T13:11:30;13.10;1.00
33955;DHT22;20233;50.804;7.126;2024-03-25T13:13:55;13.00;1.00
33955;DHT22;20233;50.804;7.126;2024-03-25T13:16:21;13.00;1.00
33955;DHT22;20233;50.804;7.126;2024-03-25T13:18:46;13.00;1.00
33955;DHT22;20233;50.804;7.126;2024-03-25T13:21:12;13.20;1.00
33955;DHT22;20233;50.804;7.126;2024-03-25T13:23:37;13.40;1.00
33955;DHT22;20233;50.804;7.126;2024-03-25T13:26:03;13.20;1.00
33955;DHT22;20233;50.804;7.126;2024-03-25T13:28:29;13.50;1.00
33955;DHT22;20233;50.804;7.126;2024-03-25T13:30:55;13.40;1.00
33955;DHT22;20233;50.804;7.126;2024-03-25T13:33:20;13.40;1.00
33955;DHT22;20233;50.804;7.126;2024-03-25T13:35:46;13.60;1.00
33955;DHT22;20233;50.804;7.126;2024-03-25T13:38:12;13.90;1.00
33955;DHT22;20233;50.804;7.126;2024-03-25T13:40:38;13.70;1.00
33955;DHT22;20233;50.804;7.126;2024-03-25T13:45:31;14.10;1.00
33955;DHT22;20233;50.804;7.126;2024-03-25T13:47:57;13.80;1.00
33955;DHT22;20233;50.804;7.126;2024-03-25T13:50:22;13.90;1.00
33955;DHT22;20233;50.804;7.126;2024-03-25T13:52:48;14.10;1.00
33955;DHT22;20233;50.804;7.126;2024-03-25T13:55:14;14.00;1.00
33955;DHT22;20233;50.804;7.126;2024-03-25T13:57:39;14.10;99.90
33955;DHT22;20233;50.804;7.126;2024-03-25T14:00:06;14.10;99.90
33955;DHT22;20233;50.804;7.126;2024-03-25T14:02:33;14.00;99.90
33955;DHT22;20233;50.804;7.126;2024-03-25T14:05:01;14.00;99.90
33955;DHT22;20233;50.804;7.126;2024-03-25T14:07:27;13.80;99.90
33955;DHT22;20233;50.804;7.126;2024-03-25T14:09:52;13.70;99.90
33955;DHT22;20233;50.804;7.126;2024-03-25T14:12:18;13.70;99.90
33955;DHT22;20233;50.804;7.126;2024-03-25T14:14:44;13.60;99.90
33955;DHT22;20233;50.804;7.126;2024-03-25T14:17:09;13.60;99.90
33955;DHT22;20233;50.804;7.126;2024-03-25T14:19:35;13.90;99.90
33955;DHT22;20233;50.804;7.126;2024-03-25T14:22:00;14.00;99.90
33955;DHT22;20233;50.804;7.126;2024-03-25T14:24:26;14.20;99.90
33955;DHT22;20233;50.804;7.126;2024-03-25T14:26:52;14.10;99.90
33955;DHT22;20233;50.804;7.126;2024-03-25T14:29:17;14.10;99.90
33955;DHT22;20233;50.804;7.126;2024-03-25T14:31:43;14.20;99.90
33955;DHT22;20233;50.804;7.126;2024-03-25T14:34:08;14.40;99.90
33955;DHT22;20233;50.804;7.126;2024-03-25T14:36:34;14.40;99.90
33955;DHT22;20233;50.804;7.126;2024-03-25T14:39:01;14.50;99.90
33955;DHT22;20233;50.804;7.126;2024-03-25T14:41:26;14.50;99.90
33955;DHT22;20233;50.804;7.126;2024-03-25T14:43:52;14.50;99.90
33955;DHT22;20233;50.804;7.126;2024-03-25T14:46:17;14.30;99.90
33955;DHT22;20233;50.804;7.126;2024-03-25T14:48:44;14.00;99.90
33955;DHT22;20233;50.804;7.126;2024-03-25T14:51:09;14.20;99.90
33955;DHT22;20233;50.804;7.126;2024-03-25T14:53:35;14.30;99.90
33955;DHT22;20233;50.804;7.126;2024-03-25T14:56:00;14.10;99.90
33955;DHT22;20233;50.804;7.126;2024-03-25T14:58:26;13.90;99.90
33955;DHT22;20233;50.804;7.126;2024-03-25T15:00:52;13.90;99.90
33955;DHT22;20233;50.804;7.126;2024-03-25T15:03:18;13.60;99.90
33955;DHT22;20233;50.804;7.126;2024-03-25T15:05:44;13.80;99.90
33955;DHT22;20233;50.804;7.126;2024-03-25T15:08:10;13.90;99.90
33955;DHT22;20233;50.804;7.126;2024-03-25T15:10:35;13.90;99.90
33955;DHT22;20233;50.804;7.126;2024-03-25T15:13:01;14.10;99.90
33955;DHT22;20233;50.804;7.126;2024-03-25T15:15:27;14.00;99.90
33955;DHT22;20233;50.804;7.126;2024-03-25T15:17:53;14.30;99.90
33955;DHT22;20233;50.804;7.126;2024-03-25T15:20:19;14.10;99.90
33955;DHT22;20233;50.804;7.126;2024-03-25T15:22:44;14.10;99.90
33955;DHT22;20233;50.804;7.126;2024-03-25T15:25:10;13.90;99.90
33955;DHT22;20233;50.804;7.126;2024-03-25T15:27:36;14.10;99.90
33955;DHT22;20233;50.804;7.126;2024-03-25T15:30:04;14.40;99.90
33955;DHT22;20233;50.804;7.126;2024-03-25T15:32:31;14.40;99.90
33955;DHT22;20233;50.804;7.126;2024-03-25T15:34:56;14.10;99.90
33955;DHT22;20233;50.804;7.126;2024-03-25T15:37:22;14.00;99.90
33955;DHT22;20233;50.804;7.126;2024-03-25T15:39:48;14.20;99.90
33955;DHT22;20233;50.804;7.126;2024-03-25T15:42:15;14.20;99.90
33955;DHT22;20233;50.804;7.126;2024-03-25T15:44:40;14.10;99.90